createdAt,value
2023-04-23T00:00:24.463Z,54.56
2023-04-23T00:03:27.771Z,56.37
2023-04-23T00:06:30.799Z,57.04
2023-04-23T00:09:33.022Z,56.76
2023-04-23T00:12:35.776Z,56.80
2023-04-23T00:15:38.512Z,56.80
2023-04-23T00:18:40.429Z,55.81
2023-04-23T00:21:42.832Z,56.99
2023-04-23T00:24:44.963Z,57.41
2023-04-23T00:27:47.921Z,56.73
2023-04-23T00:30:49.852Z,56.79
2023-04-23T00:33:52.043Z,54.76
2023-04-23T00:36:53.978Z,56.85
2023-04-23T00:39:56.059Z,55.37
2023-04-23T00:42:58.423Z,57.25
2023-04-23T00:46:00.639Z,56.28
2023-04-23T00:49:03.228Z,55.87
2023-04-23T00:52:06.069Z,56.12
2023-04-23T00:55:09.075Z,57.05
2023-04-23T00:58:11.096Z,56.48
2023-04-23T01:01:13.998Z,57.37
2023-04-23T01:04:17.917Z,56.91
2023-04-23T01:07:21.364Z,56.91
2023-04-23T01:10:23.657Z,56.43
2023-04-23T01:13:29.893Z,56.28
2023-04-23T01:16:31.942Z,56.11
2023-04-23T01:19:33.878Z,57.04
2023-04-23T01:22:37.823Z,57.53
2023-04-23T01:25:40.009Z,56.47
2023-04-23T01:28:43.669Z,57.04
2023-04-23T01:31:47.009Z,55.09
2023-04-23T01:34:49.341Z,58.21
2023-04-23T01:37:52.683Z,56.70
2023-04-23T01:40:54.653Z,56.19
2023-04-23T01:43:59.898Z,55.65
2023-04-23T01:47:01.921Z,55.78
2023-04-23T01:50:05.276Z,56.60
2023-04-23T01:53:07.320Z,54.92
2023-04-23T01:56:10.695Z,54.09
2023-04-23T01:59:12.664Z,55.06
2023-04-23T02:02:15.298Z,55.70
2023-04-23T02:05:19.110Z,56.59
2023-04-23T02:08:21.421Z,56.65
2023-04-23T02:11:24.166Z,56.34
2023-04-23T02:14:26.171Z,54.64
2023-04-23T02:17:29.303Z,55.73
2023-04-23T02:20:31.417Z,54.88
2023-04-23T02:23:33.507Z,55.74
2023-04-23T02:26:35.347Z,57.16
2023-04-23T02:29:38.107Z,55.79
2023-04-23T02:32:41.789Z,56.40
2023-04-23T02:35:43.700Z,56.51
2023-04-23T02:38:47.613Z,57.14
2023-04-23T02:41:49.520Z,56.11
2023-04-23T02:44:51.628Z,55.60
2023-04-23T02:47:53.621Z,57.91
2023-04-23T02:50:55.631Z,56.39
2023-04-23T02:53:58.126Z,56.27
2023-04-23T02:57:00.262Z,56.75
2023-04-23T03:00:04.283Z,57.11
2023-04-23T03:03:06.464Z,57.22
2023-04-23T03:06:08.601Z,57.20
2023-04-23T03:09:10.891Z,58.00
2023-04-23T03:12:12.912Z,57.79
2023-04-23T03:15:14.847Z,59.13
2023-04-23T03:18:16.766Z,58.59
2023-04-23T03:21:18.589Z,57.42
2023-04-23T03:24:20.669Z,58.03
2023-04-23T03:27:22.493Z,58.56
2023-04-23T03:30:24.812Z,59.25
2023-04-23T03:33:26.860Z,58.41
2023-04-23T03:36:29.290Z,57.76
2023-04-23T03:39:31.201Z,59.26
2023-04-23T03:42:34.235Z,58.04
2023-04-23T03:45:36.236Z,57.34
2023-04-23T03:48:38.098Z,58.67
2023-04-23T03:51:40.132Z,58.66
2023-04-23T03:54:42.285Z,57.96
2023-04-23T03:57:44.298Z,58.50
2023-04-23T04:00:47.352Z,57.17
2023-04-23T04:03:49.755Z,57.22
2023-04-23T04:06:51.912Z,54.95
2023-04-23T04:09:53.831Z,58.89
2023-04-23T04:12:56.234Z,59.87
2023-04-23T04:15:59.642Z,60.76
2023-04-23T04:19:01.866Z,60.00
2023-04-23T04:22:03.873Z,59.46
2023-04-23T04:25:07.006Z,59.81
2023-04-23T04:28:11.756Z,58.91
2023-04-23T04:31:16.038Z,58.22
2023-04-23T04:34:18.384Z,60.63
2023-04-23T04:37:21.410Z,61.22
2023-04-23T04:40:23.355Z,60.22
2023-04-23T04:43:25.249Z,59.22
2023-04-23T04:46:29.334Z,58.96
2023-04-23T04:49:31.366Z,57.04
2023-04-23T04:52:33.373Z,53.38
2023-04-23T04:55:35.234Z,50.11
2023-04-23T04:58:37.316Z,46.61
2023-04-23T05:01:39.316Z,45.48
2023-04-23T05:04:41.489Z,44.74
2023-04-23T05:07:43.685Z,44.78
2023-04-23T05:10:45.871Z,40.81
2023-04-23T05:13:48.847Z,37.80
2023-04-23T05:16:51.281Z,37.66
2023-04-23T05:19:53.223Z,41.93
2023-04-23T05:22:55.372Z,39.11
2023-04-23T05:25:58.774Z,43.17
2023-04-23T05:29:00.763Z,41.79
2023-04-23T05:32:02.724Z,40.53
2023-04-23T05:35:06.231Z,39.95
2023-04-23T05:38:12.377Z,42.06
2023-04-23T05:41:15.591Z,38.08
2023-04-23T05:44:17.410Z,37.14
2023-04-23T05:47:19.375Z,35.23
2023-04-23T05:50:22.009Z,32.60
2023-04-23T05:53:24.135Z,29.01
2023-04-23T05:56:26.089Z,29.17
2023-04-23T05:59:28.314Z,28.61
2023-04-23T06:02:34.003Z,30.86
2023-04-23T06:05:38.269Z,28.54
2023-04-23T06:08:40.679Z,25.37
2023-04-23T06:11:42.768Z,28.31
2023-04-23T06:14:44.774Z,27.68
2023-04-23T06:17:49.383Z,28.03
2023-04-23T06:20:51.672Z,29.79
2023-04-23T06:23:54.640Z,25.79
2023-04-23T06:26:57.863Z,27.19
2023-04-23T06:30:01.911Z,25.17
2023-04-23T06:33:05.137Z,23.95
2023-04-23T06:36:11.001Z,23.13
2023-04-23T06:39:13.337Z,23.95
2023-04-23T06:42:15.255Z,25.83
2023-04-23T06:45:20.425Z,22.77
2023-04-23T06:48:22.807Z,22.43
2023-04-23T06:51:28.127Z,22.94
2023-04-23T06:54:32.395Z,22.19
2023-04-23T06:57:37.553Z,21.29
2023-04-23T07:00:44.412Z,20.71
2023-04-23T07:03:49.296Z,21.83
2023-04-23T07:07:00.319Z,22.32
2023-04-23T07:10:02.545Z,24.50
2023-04-23T07:13:04.844Z,21.90
2023-04-23T07:16:07.140Z,22.53
2023-04-23T07:19:09.319Z,19.80
2023-04-23T07:22:14.467Z,20.11
2023-04-23T07:25:22.673Z,23.10
2023-04-23T07:28:29.297Z,20.65
2023-04-23T07:31:35.569Z,21.26
2023-04-23T07:34:40.137Z,21.93
2023-04-23T07:37:44.637Z,18.86
2023-04-23T07:40:47.450Z,21.97
2023-04-23T07:43:49.612Z,19.60
2023-04-23T07:46:54.666Z,19.48
2023-04-23T07:50:02.154Z,19.54
2023-04-23T07:53:05.308Z,19.94
2023-04-23T07:56:10.566Z,21.43
2023-04-23T07:59:12.805Z,20.64
2023-04-23T08:02:18.743Z,20.66
2023-04-23T08:05:23.974Z,20.01
2023-04-23T08:08:30.920Z,19.14
2023-04-23T08:11:37.765Z,19.93
2023-04-23T08:14:40.383Z,21.37
2023-04-23T08:17:45.158Z,18.33
2023-04-23T08:20:54.181Z,18.84
2023-04-23T08:23:58.699Z,18.93
2023-04-23T08:27:00.723Z,18.40
2023-04-23T08:30:05.102Z,17.74
2023-04-23T08:33:10.807Z,15.69
2023-04-23T08:36:12.927Z,15.97
2023-04-23T08:39:18.037Z,18.48
2023-04-23T08:42:58.972Z,18.24
2023-04-23T08:46:06.189Z,17.69
2023-04-23T08:49:09.227Z,18.46
2023-04-23T08:52:23.178Z,17.94
2023-04-23T08:55:26.288Z,18.10
2023-04-23T08:58:34.288Z,18.63
2023-04-23T09:01:39.305Z,17.80
2023-04-23T09:04:45.924Z,20.02
2023-04-23T09:07:50.930Z,21.67
2023-04-23T09:10:59.176Z,23.95
2023-04-23T09:14:02.170Z,32.71
2023-04-23T09:17:07.039Z,30.84
2023-04-23T09:20:09.967Z,31.67
2023-04-23T09:23:21.723Z,32.27
2023-04-23T09:26:23.785Z,31.71
2023-04-23T09:29:26.854Z,32.17
2023-04-23T09:32:34.816Z,29.86
2023-04-23T09:35:40.724Z,31.83
2023-04-23T09:38:43.062Z,30.21
2023-04-23T09:41:48.328Z,33.40
2023-04-23T09:45:04.762Z,31.75
2023-04-23T09:48:07.021Z,31.71
2023-04-23T09:51:09.302Z,30.77
2023-04-23T09:54:18.579Z,29.95
2023-04-23T09:57:20.593Z,28.28
2023-04-23T10:00:25.852Z,29.94
2023-04-23T10:03:30.933Z,30.99
2023-04-23T10:06:44.292Z,30.78
2023-04-23T10:09:51.808Z,29.45
2023-04-23T10:12:57.339Z,29.69
2023-04-23T10:16:13.894Z,32.09
2023-04-23T10:19:19.703Z,32.53
2023-04-23T10:22:22.917Z,31.79
2023-04-23T10:25:25.780Z,28.01
2023-04-23T10:28:33.688Z,28.94
2023-04-23T10:31:38.806Z,27.98
2023-04-23T10:34:42.159Z,28.86
2023-04-23T10:37:46.456Z,27.83
2023-04-23T10:40:51.058Z,28.28
2023-04-23T10:43:53.904Z,28.49
2023-04-23T10:46:58.470Z,28.82
2023-04-23T10:50:23.115Z,29.02
2023-04-23T10:53:26.388Z,28.08
2023-04-23T10:56:28.613Z,29.39
2023-04-23T10:59:32.215Z,28.70
2023-04-23T11:02:44.955Z,28.82
2023-04-23T11:05:47.031Z,29.40
2023-04-23T11:08:56.850Z,31.13
2023-04-23T11:12:01.525Z,31.23
2023-04-23T11:15:15.173Z,29.96
2023-04-23T11:18:17.263Z,28.99
2023-04-23T11:21:19.347Z,28.41
2023-04-23T11:24:23.051Z,28.58
2023-04-23T11:27:25.529Z,28.59
2023-04-23T11:30:29.956Z,29.17
2023-04-23T11:33:32.142Z,27.95
2023-04-23T11:36:34.713Z,29.37
2023-04-23T11:39:44.264Z,28.19
2023-04-23T11:42:51.357Z,28.72
2023-04-23T11:45:55.877Z,29.12
2023-04-23T11:49:00.130Z,28.50
2023-04-23T11:52:02.233Z,28.30
2023-04-23T11:55:06.587Z,28.38
2023-04-23T11:58:08.536Z,27.37
2023-04-23T12:01:13.472Z,26.85
2023-04-23T12:04:27.080Z,28.73
2023-04-23T12:07:32.927Z,29.79
2023-04-23T12:10:50.123Z,28.03
2023-04-23T12:13:53.990Z,27.44
2023-04-23T12:16:57.320Z,28.19
2023-04-23T12:19:59.272Z,26.13
2023-04-23T12:23:05.488Z,25.64
2023-04-23T12:26:15.692Z,29.43
2023-04-23T12:29:18.312Z,25.81
2023-04-23T12:32:27.052Z,25.17
2023-04-23T12:35:58.480Z,26.51
2023-04-23T12:39:32.086Z,25.27
2023-04-23T12:42:34.688Z,26.20
2023-04-23T12:45:39.626Z,27.08
2023-04-23T12:48:41.606Z,29.86
2023-04-23T12:51:43.738Z,26.25
2023-04-23T12:54:45.845Z,24.48
2023-04-23T12:57:47.770Z,25.41
2023-04-23T13:00:49.682Z,24.96
2023-04-23T13:03:52.101Z,23.59
2023-04-23T13:06:54.567Z,25.99
2023-04-23T13:09:57.746Z,31.42
2023-04-23T13:12:59.762Z,25.95
2023-04-23T13:16:02.125Z,25.36
2023-04-23T13:19:05.213Z,24.42
2023-04-23T13:22:07.199Z,23.62
2023-04-23T13:25:09.647Z,25.79
2023-04-23T13:28:11.613Z,24.25
2023-04-23T13:31:14.275Z,25.23
2023-04-23T13:34:16.738Z,26.53
2023-04-23T13:37:18.740Z,25.92
2023-04-23T13:40:20.837Z,27.80
2023-04-23T13:43:22.972Z,25.01
2023-04-23T13:46:27.734Z,24.71
2023-04-23T13:49:29.644Z,25.17
2023-04-23T13:52:34.735Z,25.39
2023-04-23T13:55:37.212Z,25.17
2023-04-23T13:58:42.890Z,25.31
2023-04-23T14:01:47.237Z,24.62
2023-04-23T14:05:09.848Z,25.33
2023-04-23T14:08:13.052Z,26.56
2023-04-23T14:11:15.052Z,25.20
2023-04-23T14:14:16.904Z,24.97
2023-04-23T14:17:18.822Z,26.74
2023-04-23T14:20:20.938Z,26.54
2023-04-23T14:23:22.834Z,25.63
2023-04-23T14:26:46.709Z,27.38
2023-04-23T14:29:55.922Z,26.99
2023-04-23T14:32:57.846Z,27.20
2023-04-23T14:35:59.755Z,27.65
2023-04-23T14:39:05.123Z,28.36
2023-04-23T14:42:06.972Z,28.31
2023-04-23T14:45:09.270Z,29.00
2023-04-23T14:48:12.465Z,29.71
2023-04-23T14:51:14.383Z,28.73
2023-04-23T14:54:17.436Z,29.78
2023-04-23T14:57:19.349Z,28.44
2023-04-23T15:00:22.381Z,28.25
2023-04-23T15:03:24.546Z,27.80
2023-04-23T15:06:26.862Z,28.48
2023-04-23T15:09:28.687Z,28.15
2023-04-23T15:12:53.693Z,28.84
2023-04-23T15:16:00.158Z,28.18
2023-04-23T15:19:06.390Z,28.50
2023-04-23T15:22:08.436Z,28.20
2023-04-23T15:25:10.993Z,29.90
2023-04-23T15:28:12.887Z,29.85
2023-04-23T15:31:14.933Z,29.51
2023-04-23T15:34:16.802Z,29.78
2023-04-23T15:37:21.113Z,29.47
2023-04-23T15:40:23.364Z,29.23
2023-04-23T15:43:25.532Z,29.88
2023-04-23T15:46:27.361Z,28.36
2023-04-23T15:49:31.696Z,28.78
2023-04-23T15:52:33.749Z,27.92
2023-04-23T15:55:35.851Z,28.44
2023-04-23T15:58:38.144Z,28.63
2023-04-23T16:01:40.358Z,29.26
2023-04-23T16:04:43.003Z,28.70
2023-04-23T16:07:45.308Z,29.80
2023-04-23T16:10:47.410Z,30.35
2023-04-23T16:13:49.582Z,29.73
2023-04-23T16:16:52.215Z,29.19
2023-04-23T16:19:54.320Z,29.60
2023-04-23T16:22:56.434Z,28.99
2023-04-23T16:25:58.458Z,29.00
2023-04-23T16:32:07.103Z,29.22
2023-04-23T16:35:11.866Z,29.10
2023-04-23T16:38:14.021Z,29.58
2023-04-23T16:41:17.673Z,29.70
2023-04-23T16:44:19.765Z,29.69
2023-04-23T16:47:21.925Z,30.13
2023-04-23T16:50:24.160Z,29.97
2023-04-23T16:53:26.298Z,28.98
2023-04-23T16:56:28.534Z,30.02
2023-04-23T16:59:31.020Z,30.46
2023-04-23T17:02:34.612Z,32.61
2023-04-23T17:05:39.175Z,33.71
2023-04-23T17:08:41.487Z,33.45
2023-04-23T17:11:43.550Z,36.60
2023-04-23T17:14:45.549Z,32.54
2023-04-23T17:17:47.536Z,36.79
2023-04-23T17:20:50.642Z,37.36
2023-04-23T17:23:53.181Z,37.23
2023-04-23T17:26:55.086Z,37.13
2023-04-23T17:29:58.932Z,36.02
2023-04-23T17:33:01.192Z,39.26
2023-04-23T17:36:04.560Z,40.46
2023-04-23T17:39:07.660Z,38.18
2023-04-23T17:42:10.461Z,42.27
2023-04-23T17:45:12.955Z,42.54
2023-04-23T17:48:15.666Z,42.53
2023-04-23T17:51:18.864Z,44.78
2023-04-23T17:54:24.754Z,43.43
2023-04-23T17:57:27.020Z,44.09
2023-04-23T18:00:29.239Z,45.05
2023-04-23T18:03:32.302Z,45.50
2023-04-23T18:06:36.056Z,44.82
2023-04-23T18:09:38.573Z,45.72
2023-04-23T18:12:40.906Z,47.64
2023-04-23T18:15:49.800Z,48.27
2023-04-23T18:18:52.132Z,47.40
2023-04-23T18:21:57.560Z,48.68
2023-04-23T18:24:59.777Z,48.69
2023-04-23T18:28:02.337Z,48.93
2023-04-23T18:31:04.783Z,49.77
2023-04-23T18:34:10.739Z,50.24
2023-04-23T18:37:33.221Z,51.31
2023-04-23T18:40:48.752Z,50.86
2023-04-23T18:43:51.561Z,50.70
2023-04-23T18:46:53.858Z,52.86
2023-04-23T18:50:03.645Z,51.60
2023-04-23T18:53:06.627Z,51.85
2023-04-23T18:56:11.058Z,51.94
2023-04-23T18:59:15.751Z,50.99
2023-04-23T19:02:28.221Z,51.79
2023-04-23T19:05:37.293Z,53.14
2023-04-23T19:08:42.946Z,53.48
2023-04-23T19:11:45.369Z,54.14
2023-04-23T19:14:50.538Z,52.28
2023-04-23T19:17:53.064Z,53.23
2023-04-23T19:20:55.742Z,52.60
2023-04-23T19:23:58.100Z,53.76
2023-04-23T19:27:00.969Z,54.04
2023-04-23T19:30:05.220Z,54.56
2023-04-23T19:33:07.608Z,54.99
2023-04-23T19:36:10.413Z,55.15
2023-04-23T19:39:12.762Z,55.38
2023-04-23T19:42:15.257Z,54.15
2023-04-23T19:45:18.477Z,55.22
2023-04-23T19:48:20.807Z,54.67
2023-04-23T19:51:27.994Z,54.81
2023-04-23T19:54:30.683Z,55.04
2023-04-23T19:57:33.071Z,55.86
2023-04-23T20:00:39.110Z,56.49
2023-04-23T20:03:43.819Z,56.72
2023-04-23T20:06:46.096Z,56.14
2023-04-23T20:09:48.227Z,56.71
2023-04-23T20:12:50.362Z,57.23
2023-04-23T20:15:55.718Z,57.14
2023-04-23T20:18:57.963Z,57.32
2023-04-23T20:22:07.716Z,57.71
2023-04-23T20:25:10.209Z,57.76
2023-04-23T20:28:12.252Z,57.93
2023-04-23T20:31:15.016Z,57.51
2023-04-23T20:34:17.300Z,57.34
2023-04-23T20:37:21.677Z,57.56
2023-04-23T20:40:25.023Z,58.14
2023-04-23T20:43:27.003Z,57.75
2023-04-23T20:46:32.512Z,58.84
2023-04-23T20:49:34.821Z,59.01
2023-04-23T20:52:37.086Z,59.33
2023-04-23T20:55:39.140Z,58.59
2023-04-23T20:58:41.909Z,59.09
2023-04-23T21:01:43.917Z,58.73
2023-04-23T21:04:45.863Z,59.36
2023-04-23T21:07:50.760Z,60.05
2023-04-23T21:10:52.893Z,59.99
2023-04-23T21:14:00.170Z,58.86
2023-04-23T21:17:02.780Z,59.76
2023-04-23T21:20:05.773Z,60.07
2023-04-23T21:23:10.062Z,60.09
2023-04-23T21:26:12.341Z,59.48
2023-04-23T21:29:14.419Z,60.57
2023-04-23T21:32:16.687Z,60.29
2023-04-23T21:35:19.588Z,60.13
2023-04-23T21:38:21.654Z,61.39
2023-04-23T21:41:24.577Z,61.02
2023-04-23T21:44:28.579Z,60.74
2023-04-23T21:47:30.469Z,60.78
2023-04-23T21:50:36.203Z,59.94
2023-04-23T21:53:41.284Z,59.92
2023-04-23T21:56:50.752Z,61.17
2023-04-23T21:59:52.718Z,61.19
2023-04-23T22:03:00.809Z,62.17
2023-04-23T22:06:04.377Z,61.79
2023-04-23T22:09:07.410Z,62.23
2023-04-23T22:12:10.112Z,62.04
2023-04-23T22:15:19.516Z,61.90
2023-04-23T22:18:21.580Z,61.47
2023-04-23T22:21:23.459Z,62.03
2023-04-23T22:24:25.347Z,61.89
2023-04-23T22:27:27.233Z,62.91
2023-04-23T22:30:30.722Z,62.13
2023-04-23T22:33:32.706Z,61.90
2023-04-23T22:36:34.607Z,61.52
2023-04-23T22:39:36.677Z,61.83
2023-04-23T22:42:38.656Z,62.58
2023-04-23T22:45:40.728Z,62.62
2023-04-23T22:48:45.006Z,61.81
2023-04-23T22:51:47.433Z,62.30
2023-04-23T22:54:49.979Z,62.52
2023-04-23T22:57:52.016Z,61.74
2023-04-23T23:00:55.105Z,62.86
2023-04-23T23:03:57.285Z,62.76
2023-04-23T23:06:59.174Z,63.44
2023-04-23T23:10:01.110Z,63.22
2023-04-23T23:13:03.053Z,62.35
2023-04-23T23:16:05.933Z,63.91
2023-04-23T23:19:08.330Z,63.87
2023-04-23T23:22:10.307Z,63.76
2023-04-23T23:25:12.772Z,64.26
2023-04-23T23:28:14.650Z,64.12
2023-04-23T23:31:16.992Z,64.22
2023-04-23T23:34:19.339Z,63.67
2023-04-23T23:37:21.560Z,64.89
2023-04-23T23:40:23.649Z,64.30
2023-04-23T23:43:25.794Z,64.36
2023-04-23T23:46:28.141Z,64.94
2023-04-23T23:49:30.277Z,65.11
2023-04-23T23:52:32.373Z,64.69
2023-04-23T23:55:34.277Z,65.62
2023-04-23T23:58:36.585Z,65.84
